createdAt,value
2019-05-29T00:02:59.933Z,12.47
2019-05-29T00:06:08.133Z,12.40
2019-05-29T00:09:15.611Z,13.47
2019-05-29T00:12:23.118Z,12.70
2019-05-29T00:15:30.616Z,16.10
2019-05-29T00:18:38.125Z,15.80
2019-05-29T00:21:46.262Z,13.07
2019-05-29T00:24:53.699Z,16.70
2019-05-29T00:28:01.212Z,15.13
2019-05-29T00:31:09.691Z,13.83
2019-05-29T00:34:17.486Z,12.80
2019-05-29T00:37:25.247Z,10.97
2019-05-29T00:40:32.822Z,10.63
2019-05-29T00:43:40.452Z,8.90
2019-05-29T00:46:47.922Z,8.07
2019-05-29T00:49:55.352Z,8.40
2019-05-29T00:53:04.449Z,10.63
2019-05-29T00:56:12.607Z,9.97
2019-05-29T00:59:20.286Z,11.10
2019-05-29T01:02:27.697Z,8.70
2019-05-29T01:05:35.132Z,8.80
2019-05-29T01:08:42.582Z,8.10
2019-05-29T01:11:50.058Z,7.13
2019-05-29T01:14:57.571Z,8.70
2019-05-29T01:18:04.994Z,7.60
2019-05-29T01:21:12.440Z,6.67
2019-05-29T01:24:20.642Z,6.30
2019-05-29T01:27:28.081Z,6.63
2019-05-29T01:30:35.586Z,6.77
2019-05-29T01:33:43.060Z,6.90
2019-05-29T01:36:50.539Z,7.33
2019-05-29T01:39:58.038Z,6.73
2019-05-29T01:43:05.651Z,6.37
2019-05-29T01:46:13.094Z,6.47
2019-05-29T01:49:21.678Z,6.20
2019-05-29T01:52:29.216Z,6.33
2019-05-29T01:55:36.656Z,7.13
2019-05-29T01:58:44.193Z,6.60
2019-05-29T02:01:51.655Z,7.93
2019-05-29T02:04:59.087Z,6.93
2019-05-29T02:08:06.581Z,7.53
2019-05-29T02:11:15.014Z,4.83
2019-05-29T02:14:22.782Z,5.50
2019-05-29T02:17:30.240Z,5.53
2019-05-29T02:20:37.699Z,4.53
2019-05-29T02:23:45.196Z,4.83
2019-05-29T02:26:52.626Z,3.80
2019-05-29T02:30:00.065Z,5.50
2019-05-29T02:33:07.486Z,4.40
2019-05-29T02:36:14.956Z,4.10
2019-05-29T02:39:23.121Z,5.00
2019-05-29T02:42:31.461Z,4.90
2019-05-29T02:45:53.471Z,3.93
2019-05-29T02:48:49.758Z,4.87
2019-05-29T02:51:58.278Z,5.27
2019-05-29T02:55:07.717Z,5.60
2019-05-29T02:58:15.150Z,5.43
2019-05-29T03:01:24.055Z,5.27
2019-05-29T03:04:32.824Z,5.50
2019-05-29T03:07:40.723Z,4.93
2019-05-29T03:10:48.284Z,6.23
2019-05-29T03:13:55.803Z,7.33
2019-05-29T03:17:03.257Z,6.70
2019-05-29T03:20:10.859Z,9.43
2019-05-29T03:23:18.419Z,7.40
2019-05-29T03:26:27.699Z,6.90
2019-05-29T03:29:34.977Z,5.37
2019-05-29T03:32:47.852Z,10.00
2019-05-29T03:35:51.541Z,5.80
2019-05-29T03:38:58.996Z,6.60
2019-05-29T03:42:06.507Z,6.13
2019-05-29T03:45:14.114Z,7.00
2019-05-29T03:48:21.790Z,4.10
2019-05-29T03:51:32.604Z,4.67
2019-05-29T03:54:39.275Z,4.60
2019-05-29T03:57:46.741Z,3.33
2019-05-29T04:00:54.229Z,3.80
2019-05-29T04:04:01.681Z,3.53
2019-05-29T04:07:09.099Z,4.60
2019-05-29T04:10:19.658Z,4.10
2019-05-29T04:13:29.442Z,4.20
2019-05-29T04:16:58.431Z,4.43
2019-05-29T04:19:46.542Z,5.63
2019-05-29T04:22:56.693Z,5.17
2019-05-29T04:26:04.573Z,4.93
2019-05-29T04:29:12.999Z,5.10
2019-05-29T04:32:20.423Z,6.23
2019-05-29T04:35:28.423Z,5.57
2019-05-29T04:38:37.813Z,4.90
2019-05-29T04:41:44.966Z,5.40
2019-05-29T04:44:52.865Z,5.50
2019-05-29T04:48:00.304Z,6.83
2019-05-29T04:51:07.736Z,9.60
2019-05-29T04:54:16.252Z,9.27
2019-05-29T04:57:23.774Z,9.70
2019-05-29T05:00:31.235Z,12.23
2019-05-29T05:03:39.421Z,13.73
2019-05-29T05:06:46.977Z,19.27
2019-05-29T05:09:54.446Z,17.20
2019-05-29T05:13:01.911Z,20.40
2019-05-29T05:16:09.691Z,21.93
2019-05-29T05:19:17.193Z,20.97
2019-05-29T05:22:24.651Z,30.20
2019-05-29T05:25:32.196Z,21.10
2019-05-29T05:28:43.988Z,22.20
2019-05-29T05:31:48.917Z,24.53
2019-05-29T05:34:56.379Z,24.43
2019-05-29T05:38:03.881Z,21.57
2019-05-29T05:41:11.356Z,21.07
2019-05-29T05:44:19.819Z,21.40
2019-05-29T05:47:43.397Z,19.80
2019-05-29T05:50:37.284Z,21.53
2019-05-29T05:53:44.930Z,21.97
2019-05-29T05:56:53.679Z,29.83
2019-05-29T06:00:01.333Z,25.80
2019-05-29T06:03:09.115Z,27.97
2019-05-29T06:06:16.638Z,27.90
2019-05-29T06:09:25.882Z,29.13
2019-05-29T06:12:34.408Z,27.40
2019-05-29T06:15:42.948Z,31.67
2019-05-29T06:18:50.713Z,23.07
2019-05-29T06:21:58.264Z,25.10
2019-05-29T06:25:06.197Z,23.60
2019-05-29T06:28:14.793Z,27.50
2019-05-29T06:31:22.499Z,18.70
2019-05-29T06:34:29.925Z,30.10
2019-05-29T06:37:37.594Z,16.20
2019-05-29T06:40:45.751Z,17.83
2019-05-29T06:43:53.905Z,18.67
2019-05-29T06:47:01.542Z,11.27
2019-05-29T06:50:09.373Z,15.97
2019-05-29T06:53:16.942Z,20.27
2019-05-29T06:56:24.545Z,19.73
2019-05-29T06:59:32.039Z,17.33
2019-05-29T07:02:40.671Z,16.13
2019-05-29T07:05:51.335Z,13.87
2019-05-29T07:08:57.659Z,17.53
2019-05-29T07:12:05.132Z,16.50
2019-05-29T07:15:12.700Z,27.43
2019-05-29T07:18:20.285Z,24.90
2019-05-29T07:21:27.869Z,33.10
2019-05-29T07:24:36.843Z,27.77
2019-05-29T07:27:45.103Z,29.60
2019-05-29T07:31:01.580Z,25.00
2019-05-29T07:34:02.997Z,15.30
2019-05-29T07:37:10.486Z,13.77
2019-05-29T07:40:18.840Z,12.90
2019-05-29T07:43:26.409Z,13.90
2019-05-29T07:46:34.051Z,12.87
2019-05-29T07:49:44.680Z,16.10
2019-05-29T07:52:50.751Z,14.60
2019-05-29T07:55:58.224Z,13.17
2019-05-29T07:59:05.764Z,22.23
2019-05-29T08:02:13.287Z,16.57
2019-05-29T08:05:20.871Z,14.80
2019-05-29T08:08:28.376Z,13.37
2019-05-29T08:11:35.904Z,14.03
2019-05-29T08:14:43.704Z,21.27
2019-05-29T08:17:51.365Z,13.60
2019-05-29T08:20:58.929Z,13.30
2019-05-29T08:24:06.435Z,17.43
2019-05-29T08:27:14.017Z,18.07
2019-05-29T08:30:22.474Z,15.07
2019-05-29T08:33:29.942Z,15.80
2019-05-29T08:36:37.456Z,15.10
2019-05-29T08:39:45.394Z,16.23
2019-05-29T08:42:52.913Z,14.43
2019-05-29T08:46:00.345Z,14.27
2019-05-29T08:49:07.765Z,15.27
2019-05-29T08:52:15.219Z,13.53
2019-05-29T08:55:22.682Z,15.73
2019-05-29T08:58:30.125Z,15.40
2019-05-29T09:01:37.596Z,15.00
2019-05-29T09:04:48.361Z,14.37
2019-05-29T09:07:55.855Z,16.37
2019-05-29T09:11:03.438Z,75.20
2019-05-29T09:14:10.971Z,16.00
2019-05-29T09:17:18.570Z,14.67
2019-05-29T09:20:49.715Z,19.83
2019-05-29T09:23:35.806Z,15.83
2019-05-29T09:26:46.348Z,21.60
2019-05-29T09:29:52.357Z,25.23
2019-05-29T09:32:59.843Z,29.13
2019-05-29T09:36:07.537Z,28.67
2019-05-29T09:39:16.688Z,27.73
2019-05-29T09:42:25.348Z,18.00
2019-05-29T09:45:33.017Z,22.10
2019-05-29T09:48:49.267Z,21.60
2019-05-29T09:51:49.606Z,16.13
2019-05-29T09:54:58.151Z,18.57
2019-05-29T09:58:06.812Z,15.40
2019-05-29T10:01:22.850Z,16.43
2019-05-29T10:04:23.337Z,15.80
2019-05-29T10:07:30.913Z,12.77
2019-05-29T10:10:38.323Z,13.10
2019-05-29T10:13:45.822Z,14.40
2019-05-29T10:16:56.107Z,10.60
2019-05-29T10:20:03.282Z,13.57
2019-05-29T10:23:11.892Z,12.33
2019-05-29T10:26:19.394Z,17.93
2019-05-29T10:29:26.909Z,11.07
2019-05-29T10:32:34.376Z,17.30
2019-05-29T10:35:42.602Z,14.43
2019-05-29T10:38:50.733Z,9.57
2019-05-29T10:41:59.224Z,9.13
2019-05-29T10:45:08.822Z,13.03
2019-05-29T10:48:16.333Z,12.40
2019-05-29T10:51:23.819Z,8.47
2019-05-29T10:54:31.344Z,11.87
2019-05-29T10:57:38.872Z,11.43
2019-05-29T11:00:49.057Z,11.87
2019-05-29T11:03:56.848Z,11.03
2019-05-29T11:07:04.408Z,9.37
2019-05-29T11:10:13.539Z,12.70
2019-05-29T11:13:21.472Z,10.53
2019-05-29T11:16:28.947Z,10.30
2019-05-29T11:19:36.542Z,11.77
2019-05-29T11:22:43.992Z,10.70
2019-05-29T11:25:52.091Z,10.10
2019-05-29T11:28:59.741Z,11.43
2019-05-29T11:32:07.217Z,9.43
2019-05-29T11:35:15.602Z,11.43
2019-05-29T11:38:24.042Z,8.50
2019-05-29T11:41:31.472Z,10.73
2019-05-29T11:44:39.003Z,9.50
2019-05-29T11:47:47.300Z,12.83
2019-05-29T11:50:54.790Z,15.23
2019-05-29T11:54:02.492Z,15.37
2019-05-29T11:57:10.068Z,17.13
2019-05-29T12:00:20.917Z,8.80
2019-05-29T12:03:28.499Z,12.43
2019-05-29T12:06:36.052Z,9.83
2019-05-29T12:09:43.800Z,12.37
2019-05-29T12:12:51.509Z,11.27
2019-05-29T12:15:59.696Z,12.77
2019-05-29T12:19:07.261Z,12.83
2019-05-29T12:22:14.835Z,15.03
2019-05-29T12:25:22.608Z,9.50
2019-05-29T12:28:30.099Z,11.90
2019-05-29T12:31:37.571Z,15.80
2019-05-29T12:34:53.265Z,9.07
2019-05-29T12:37:55.134Z,10.90
2019-05-29T12:41:03.844Z,10.53
2019-05-29T12:44:11.425Z,12.70
2019-05-29T12:47:18.884Z,10.20
2019-05-29T12:50:26.696Z,10.63
2019-05-29T12:53:34.356Z,10.77
2019-05-29T12:56:41.761Z,11.00
2019-05-29T12:59:49.230Z,9.70
2019-05-29T13:02:56.763Z,10.97
2019-05-29T13:06:04.464Z,10.00
2019-05-29T13:09:12.208Z,19.77
2019-05-29T13:12:19.623Z,13.93
2019-05-29T13:15:27.475Z,18.07
2019-05-29T13:18:34.917Z,14.73
2019-05-29T13:21:42.457Z,13.33
2019-05-29T13:24:52.675Z,9.80
2019-05-29T13:27:59.950Z,15.27
2019-05-29T13:31:08.283Z,11.60
2019-05-29T13:34:15.793Z,11.73
2019-05-29T13:37:23.206Z,9.13
2019-05-29T13:40:30.706Z,10.97
2019-05-29T13:43:38.185Z,11.13
2019-05-29T13:46:45.687Z,12.77
2019-05-29T13:49:53.170Z,11.60
2019-05-29T13:53:01.290Z,9.83
2019-05-29T13:56:09.289Z,13.27
2019-05-29T13:59:16.756Z,15.13
2019-05-29T14:02:24.226Z,11.53
2019-05-29T14:05:31.681Z,11.53
2019-05-29T14:08:39.273Z,9.23
2019-05-29T14:11:46.717Z,14.43
2019-05-29T14:14:54.154Z,10.03
2019-05-29T14:18:02.851Z,11.50
2019-05-29T14:21:10.601Z,10.07
2019-05-29T14:24:28.356Z,13.60
2019-05-29T14:27:27.234Z,12.00
2019-05-29T14:30:34.660Z,8.87
2019-05-29T14:33:42.086Z,11.63
2019-05-29T14:36:49.653Z,10.90
2019-05-29T14:39:57.086Z,8.53
2019-05-29T14:43:07.219Z,6.67
2019-05-29T14:46:14.574Z,9.70
2019-05-29T14:49:22.185Z,11.03
2019-05-29T14:52:30.027Z,10.17
2019-05-29T14:55:37.844Z,10.40
2019-05-29T14:58:45.549Z,8.10
2019-05-29T15:01:52.971Z,10.00
2019-05-29T15:05:00.386Z,8.77
2019-05-29T15:08:08.098Z,9.33
2019-05-29T15:11:15.646Z,13.00
2019-05-29T15:14:23.195Z,9.65
2019-05-29T15:17:30.695Z,10.33
2019-05-29T15:20:38.245Z,8.83
2019-05-29T15:23:45.769Z,8.40
2019-05-29T15:26:53.397Z,8.80
2019-05-29T15:30:01.036Z,9.83
2019-05-29T15:33:10.759Z,4.70
2019-05-29T15:36:18.133Z,6.23
2019-05-29T15:39:25.645Z,12.17
2019-05-29T15:42:33.355Z,12.00
2019-05-29T15:45:40.927Z,8.27
2019-05-29T15:48:48.376Z,5.67
2019-05-29T15:51:55.837Z,9.23
2019-05-29T15:55:19.978Z,8.53
2019-05-29T15:58:13.461Z,7.70
2019-05-29T16:01:20.963Z,5.23
2019-05-29T16:04:28.562Z,7.87
2019-05-29T16:07:35.975Z,6.50
2019-05-29T16:10:43.471Z,11.53
2019-05-29T16:13:51.458Z,6.43
2019-05-29T16:16:58.941Z,8.33
2019-05-29T16:20:06.509Z,7.83
2019-05-29T16:23:30.984Z,10.57
2019-05-29T16:26:24.757Z,5.80
2019-05-29T16:29:32.241Z,6.97
2019-05-29T16:32:40.439Z,7.07
2019-05-29T16:35:48.146Z,7.83
2019-05-29T16:38:56.095Z,12.60
2019-05-29T16:42:03.572Z,6.35
2019-05-29T16:45:14.190Z,6.40
2019-05-29T16:48:22.872Z,9.40
2019-05-29T16:51:32.107Z,8.13
2019-05-29T16:54:39.685Z,16.40
2019-05-29T16:57:47.499Z,12.93
2019-05-29T17:00:55.010Z,15.27
2019-05-29T17:04:02.625Z,13.37
2019-05-29T17:07:10.054Z,10.30
2019-05-29T17:10:18.402Z,10.57
2019-05-29T17:13:25.865Z,8.83
2019-05-29T17:16:33.324Z,12.40
2019-05-29T17:19:41.899Z,6.50
2019-05-29T17:22:50.455Z,4.70
2019-05-29T17:26:10.165Z,8.77
2019-05-29T17:29:07.416Z,5.63
2019-05-29T17:32:14.859Z,7.30
2019-05-29T17:35:23.146Z,8.77
2019-05-29T17:38:30.756Z,7.63
2019-05-29T17:41:39.860Z,5.70
2019-05-29T17:44:47.813Z,7.27
2019-05-29T17:47:57.959Z,13.97
2019-05-29T17:51:05.795Z,8.70
2019-05-29T17:54:13.362Z,11.23
2019-05-29T17:57:21.944Z,9.50
2019-05-29T18:00:29.723Z,6.17
2019-05-29T18:03:37.347Z,8.93
2019-05-29T18:06:44.817Z,7.77
2019-05-29T18:09:53.117Z,9.23
2019-05-29T18:13:00.886Z,6.77
2019-05-29T18:16:09.837Z,6.23
2019-05-29T18:19:19.632Z,11.80
2019-05-29T18:22:29.105Z,9.20
2019-05-29T18:25:36.637Z,13.10
2019-05-29T18:28:44.441Z,7.27
2019-05-29T18:31:51.988Z,11.27
2019-05-29T18:34:59.701Z,33.83
2019-05-29T18:38:07.279Z,21.83
2019-05-29T18:41:14.957Z,8.60
2019-05-29T18:44:22.870Z,7.03
2019-05-29T18:47:33.379Z,8.73
2019-05-29T18:50:44.215Z,12.10
2019-05-29T18:53:50.299Z,13.07
2019-05-29T18:57:14.444Z,8.90
2019-05-29T19:00:08.029Z,10.00
2019-05-29T19:03:17.709Z,10.57
2019-05-29T19:06:29.659Z,10.30
2019-05-29T19:09:37.383Z,9.20
2019-05-29T19:12:44.901Z,10.60
2019-05-29T19:15:52.445Z,9.10
2019-05-29T19:19:00.873Z,12.43
2019-05-29T19:22:08.419Z,9.13
2019-05-29T19:25:16.088Z,12.10
2019-05-29T19:28:24.524Z,14.00
2019-05-29T19:31:33.347Z,25.40
2019-05-29T19:34:41.016Z,18.47
2019-05-29T19:37:48.641Z,10.20
2019-05-29T19:40:56.178Z,17.80
2019-05-29T19:44:03.683Z,9.53
2019-05-29T19:47:13.369Z,10.87
2019-05-29T19:50:22.550Z,6.90
2019-05-29T19:53:31.507Z,14.83
2019-05-29T19:56:39.071Z,11.50
2019-05-29T19:59:46.539Z,6.33
2019-05-29T20:02:54.162Z,12.20
2019-05-29T20:06:01.679Z,10.50
2019-05-29T20:09:09.364Z,9.90
2019-05-29T20:12:17.395Z,14.43
2019-05-29T20:15:24.882Z,9.37
2019-05-29T20:18:32.369Z,12.10
2019-05-29T20:21:39.787Z,8.33
2019-05-29T20:24:47.268Z,13.87
2019-05-29T20:28:06.098Z,9.53
2019-05-29T20:31:05.041Z,10.20
2019-05-29T20:34:12.552Z,13.47
2019-05-29T20:37:20.052Z,9.80
2019-05-29T20:40:30.960Z,9.90
2019-05-29T20:43:39.708Z,8.60
2019-05-29T20:46:48.565Z,9.10
2019-05-29T20:49:56.021Z,10.33
2019-05-29T20:53:03.822Z,8.03
2019-05-29T20:56:11.369Z,10.87
2019-05-29T20:59:19.500Z,11.93
2019-05-29T21:02:27.022Z,13.03
2019-05-29T21:05:34.624Z,11.53
2019-05-29T21:08:43.359Z,13.47
2019-05-29T21:11:50.959Z,12.13
2019-05-29T21:14:58.579Z,15.43
2019-05-29T21:18:06.040Z,14.83
2019-05-29T21:21:13.493Z,12.40
2019-05-29T21:24:22.200Z,11.07
2019-05-29T21:27:29.709Z,16.33
2019-05-29T21:30:37.466Z,17.73
2019-05-29T21:33:47.547Z,15.80
2019-05-29T21:36:55.030Z,30.87
2019-05-29T21:40:02.465Z,23.23
2019-05-29T21:43:10.890Z,26.73
2019-05-29T21:46:18.316Z,20.43
2019-05-29T21:49:25.746Z,22.60
2019-05-29T21:52:33.152Z,25.67
2019-05-29T21:55:41.471Z,22.33
2019-05-29T21:59:03.216Z,18.67
2019-05-29T22:01:58.055Z,21.53
2019-05-29T22:05:06.310Z,51.90
2019-05-29T22:08:13.885Z,25.90
2019-05-29T22:11:23.350Z,26.47
2019-05-29T22:14:30.808Z,23.87
2019-05-29T22:17:39.304Z,24.93
2019-05-29T22:20:46.928Z,27.43
2019-05-29T22:23:55.135Z,25.23
2019-05-29T22:27:02.750Z,24.53
2019-05-29T22:30:10.413Z,26.50
2019-05-29T22:33:17.883Z,24.83
2019-05-29T22:36:25.331Z,20.67
2019-05-29T22:39:32.749Z,29.27
2019-05-29T22:42:40.288Z,25.60
2019-05-29T22:45:47.768Z,27.27
2019-05-29T22:48:55.885Z,16.53
2019-05-29T22:52:03.390Z,17.90
2019-05-29T22:55:11.834Z,11.53
2019-05-29T22:58:19.429Z,17.70
2019-05-29T23:01:26.977Z,11.80
2019-05-29T23:04:36.065Z,12.20
2019-05-29T23:07:43.523Z,11.37
2019-05-29T23:10:52.180Z,8.53
2019-05-29T23:14:00.366Z,9.00
2019-05-29T23:17:09.017Z,11.43
2019-05-29T23:20:17.473Z,10.10
2019-05-29T23:23:24.902Z,9.80
2019-05-29T23:26:32.340Z,11.30
2019-05-29T23:29:48.636Z,12.47
2019-05-29T23:32:48.826Z,15.90
2019-05-29T23:35:56.970Z,13.07
2019-05-29T23:39:05.539Z,13.97
2019-05-29T23:42:13.060Z,10.77
2019-05-29T23:45:20.452Z,11.40
2019-05-29T23:48:27.967Z,12.43
2019-05-29T23:51:35.379Z,13.17
2019-05-29T23:54:42.977Z,12.10
2019-05-29T23:57:50.438Z,12.50
